Time;durP1;ratioP1;P1;durP2;ratioP2;P2;SDS_P1;SDS_P2;PMS_P1;PMS_P2;Temp;Humidity;BMP_temperature;BMP_pressure;BME280_temperature;BME280_humidity;BME280_pressure;Samples;Min_cycle;Max_cycle;Signal;HPM_P1;HPM_P2
2022/02/28 00:02:16;;;;;;;5.25;1.73;;;;;;;;;;5012484;28;20580;-79
2022/02/28 00:04:42;;;;;;;3.78;1.77;;;18.10;50.60;;;;;;5010836;28;20038;-77
2022/02/28 00:07:08;;;;;;;3.47;1.50;;;18.00;50.70;;;;;;5012774;28;20178;-78
2022/02/28 00:09:33;;;;;;;3.80;1.75;;;18.00;50.60;;;;;;5012217;28;20030;-79
2022/02/28 00:11:59;;;;;;;5.43;1.70;;;18.00;50.60;;;;;;5012018;28;20037;-77
2022/02/28 00:14:24;;;;;;;3.65;1.52;;;17.90;50.50;;;;;;5012015;28;20026;-77
2022/02/28 00:16:50;;;;;;;4.15;2.00;;;17.90;50.50;;;;;;4994342;28;20112;-78
2022/02/28 00:19:16;;;;;;;3.60;1.90;;;17.90;50.40;;;;;;5012168;28;20032;-80
2022/02/28 00:21:42;;;;;;;3.88;2.22;;;17.90;50.40;;;;;;5011898;28;20382;-77
2022/02/28 00:24:08;;;;;;;3.63;1.85;;;17.80;50.40;;;;;;4994693;28;20022;-78
2022/02/28 00:26:33;;;;;;;3.15;1.55;;;17.80;50.40;;;;;;5012045;28;20471;-77
2022/02/28 00:28:59;;;;;;;3.75;1.60;;;17.80;50.40;;;;;;5011147;28;20068;-80
2022/02/28 00:31:24;;;;;;;3.08;1.67;;;17.80;50.40;;;;;;5012000;28;20033;-79
2022/02/28 00:33:50;;;;;;;4.22;1.60;;;17.80;50.40;;;;;;5011711;28;20072;-77
2022/02/28 00:36:16;;;;;;;2.88;1.73;;;17.70;50.30;;;;;;4994368;28;20029;-77
2022/02/28 00:38:41;;;;;;;2.90;1.48;;;17.70;50.40;;;;;;5011535;28;20038;-78
2022/02/28 00:41:07;;;;;;;4.35;1.52;;;17.70;50.40;;;;;;4994608;28;20030;-76
2022/02/28 00:43:34;;;;;;;4.20;1.73;;;17.70;50.50;;;;;;5011478;28;20394;-80
2022/02/28 00:46:00;;;;;;;3.17;1.58;;;17.60;50.40;;;;;;5011534;28;20461;-81
2022/02/28 00:48:26;;;;;;;3.92;2.00;;;17.60;53.00;;;;;;5011765;28;20033;-77
2022/02/28 00:50:51;;;;;;;4.03;1.55;;;17.60;53.50;;;;;;5011391;28;20429;-79
2022/02/28 00:53:17;;;;;;;3.78;2.10;;;17.60;53.70;;;;;;5011408;28;20052;-79
2022/02/28 00:55:42;;;;;;;3.83;1.67;;;17.60;54.00;;;;;;5011428;28;20504;-81
2022/02/28 00:58:08;;;;;;;3.88;1.63;;;17.60;54.20;;;;;;5011784;28;20022;-81
2022/02/28 01:00:35;;;;;;;5.03;1.60;;;17.60;54.20;;;;;;5011389;28;20437;-79
2022/02/28 01:03:00;;;;;;;2.90;1.38;;;17.60;54.30;;;;;;5011275;28;20470;-79
2022/02/28 01:05:26;;;;;;;5.07;1.90;;;17.60;54.20;;;;;;5011605;28;20034;-80
2022/02/28 01:07:52;;;;;;;3.60;1.88;;;17.60;54.20;;;;;;5011253;28;20384;-76
2022/02/28 01:10:20;;;;;;;2.85;1.27;;;17.50;54.20;;;;;;5011345;28;20072;-76
2022/02/28 01:12:50;;;;;;;5.20;1.38;;;17.50;54.20;;;;;;5011164;28;20447;-78
2022/02/28 01:15:16;;;;;;;3.83;2.08;;;17.50;54.10;;;;;;5011025;28;20053;-78
2022/02/28 01:17:42;;;;;;;3.30;1.73;;;17.50;54.10;;;;;;5011265;28;20052;-78
2022/02/28 01:20:09;;;;;;;3.90;1.92;;;17.50;53.90;;;;;;5011633;28;20014;-79
2022/02/28 01:22:35;;;;;;;3.67;1.75;;;17.50;53.90;;;;;;5011685;28;20060;-76
2022/02/28 01:25:02;;;;;;;3.58;1.60;;;17.50;53.80;;;;;;5010991;28;20421;-79
2022/02/28 01:27:28;;;;;;;3.85;1.55;;;17.40;53.80;;;;;;5011199;28;20490;-78
2022/02/28 01:29:54;;;;;;;4.25;1.67;;;17.40;53.70;;;;;;5010586;28;20046;-75
2022/02/28 01:32:20;;;;;;;4.47;2.03;;;17.40;53.50;;;;;;5011321;28;20029;-77
2022/02/28 01:34:45;;;;;;;2.63;1.35;;;17.40;53.50;;;;;;5010990;28;20080;-76
2022/02/28 01:37:11;;;;;;;5.63;2.10;;;17.40;53.40;;;;;;4993543;28;20026;-76
2022/02/28 01:39:44;;;;;;;3.35;1.63;;;;;;;;;;4993674;28;20035;-77
2022/02/28 01:42:10;;;;;;;3.38;1.67;;;17.40;53.30;;;;;;5010994;28;20029;-76
2022/02/28 01:44:36;;;;;;;3.35;1.58;;;17.30;53.20;;;;;;5011420;28;20024;-76
2022/02/28 01:47:02;;;;;;;2.65;1.40;;;17.30;53.20;;;;;;5010941;28;20108;-76
2022/02/28 01:49:28;;;;;;;4.78;1.95;;;17.20;53.10;;;;;;5011066;28;20478;-78
2022/02/28 01:51:54;;;;;;;5.00;1.98;;;17.20;53.10;;;;;;5010817;28;20534;-76
2022/02/28 01:54:20;;;;;;;2.95;1.90;;;17.20;52.90;;;;;;5011092;28;20096;-77
2022/02/28 01:56:45;;;;;;;3.17;1.75;;;17.30;52.90;;;;;;5010552;28;20033;-77
2022/02/28 01:59:11;;;;;;;2.75;1.45;;;17.20;52.80;;;;;;4993387;28;20052;-77
2022/02/28 02:01:37;;;;;;;2.30;1.23;;;;;;;;;;4993713;28;20025;-79
2022/02/28 02:04:04;;;;;;;3.17;1.70;;;17.20;53.30;;;;;;5010645;28;20033;-78
2022/02/28 02:06:29;;;;;;;2.60;1.45;;;17.10;52.60;;;;;;5010961;28;20037;-76
2022/02/28 02:08:56;;;;;;;4.50;1.63;;;17.10;52.50;;;;;;5010565;28;20021;-81
2022/02/28 02:11:22;;;;;;;3.35;1.80;;;17.10;52.40;;;;;;5010824;28;20022;-77
2022/02/28 02:13:48;;;;;;;3.22;1.58;;;17.10;52.40;;;;;;5010330;28;20022;-78
2022/02/28 02:16:16;;;;;;;2.88;1.60;;;17.10;52.30;;;;;;5014450;28;20026;-81
2022/02/28 02:18:41;;;;;;;3.67;1.58;;;17.10;52.30;;;;;;5014292;28;20044;-81
2022/02/28 02:21:07;;;;;;;3.08;1.50;;;17.00;52.80;;;;;;5013304;28;20479;-81
2022/02/28 02:23:32;;;;;;;3.05;1.77;;;17.00;52.20;;;;;;5014527;28;20482;-81
2022/02/28 02:25:59;;;;;;;2.90;1.45;;;17.00;52.10;;;;;;5014368;28;20504;-78
2022/02/28 02:28:25;;;;;;;3.17;1.75;;;17.00;52.00;;;;;;5014284;28;20036;-78
2022/02/28 02:30:54;;;;;;;4.05;1.85;;;17.00;51.90;;;;;;5013891;28;20034;-77
2022/02/28 02:33:20;;;;;;;2.78;1.52;;;17.00;51.90;;;;;;5014164;28;20036;-80
2022/02/28 02:35:59;;;;;;;3.60;1.50;;;16.90;51.80;;;;;;5013586;28;20030;-81
2022/02/28 02:38:26;;;;;;;3.42;1.55;;;16.90;51.80;;;;;;5014063;28;20030;-81
2022/02/28 02:40:52;;;;;;;3.03;1.48;;;16.90;51.70;;;;;;5013744;28;20030;-81
2022/02/28 02:43:18;;;;;;;3.30;1.55;;;16.90;51.70;;;;;;5013925;28;20565;-82
2022/02/28 02:45:44;;;;;;;2.72;1.50;;;16.90;51.70;;;;;;5013829;28;20490;-81
2022/02/28 02:48:14;;;;;;;2.28;1.25;;;16.90;51.60;;;;;;5013937;28;20395;-83
2022/02/28 02:50:40;;;;;;;1.90;1.10;;;16.80;51.60;;;;;;5013655;28;20077;-83
2022/02/28 02:53:06;;;;;;;3.33;1.52;;;16.80;51.50;;;;;;5014199;28;20022;-77
2022/02/28 02:55:32;;;;;;;3.03;1.52;;;16.80;51.40;;;;;;5013751;28;20490;-77
2022/02/28 02:57:58;;;;;;;3.08;1.60;;;16.80;51.50;;;;;;5013158;28;20115;-76
2022/02/28 03:00:23;;;;;;;3.08;1.45;;;16.70;51.30;;;;;;5013763;28;20028;-78
2022/02/28 03:02:49;;;;;;;3.05;1.73;;;;;;;;;;5013378;28;20441;-76
2022/02/28 03:05:15;;;;;;;3.65;2.05;;;16.70;51.40;;;;;;5012173;28;20485;-78
2022/02/28 03:07:41;;;;;;;2.80;1.48;;;16.40;59.90;;;;;;5013293;28;20084;-76
2022/02/28 03:10:07;;;;;;;4.05;2.42;;;16.70;51.30;;;;;;5013711;28;20034;-76
2022/02/28 03:12:32;;;;;;;3.33;1.63;;;16.70;51.30;;;;;;5013142;28;20030;-76
2022/02/28 03:14:58;;;;;;;2.47;1.58;;;16.70;51.20;;;;;;5013164;28;20025;-82
2022/02/28 03:17:24;;;;;;;3.58;1.55;;;16.70;51.20;;;;;;5013316;28;20040;-77
2022/02/28 03:19:49;;;;;;;3.70;1.63;;;16.60;51.10;;;;;;5012981;28;20040;-77
2022/02/28 03:22:15;;;;;;;2.08;1.42;;;16.60;51.00;;;;;;5013309;28;20022;-78
2022/02/28 03:24:40;;;;;;;2.78;1.35;;;16.70;51.10;;;;;;5012228;28;20057;-75
2022/02/28 03:27:06;;;;;;;2.70;1.50;;;16.60;51.00;;;;;;5011663;28;20077;-76
2022/02/28 03:29:32;;;;;;;3.33;1.40;;;16.60;50.90;;;;;;5013037;28;20060;-77
2022/02/28 03:31:58;;;;;;;3.08;1.33;;;16.60;51.00;;;;;;5012835;28;20030;-78
2022/02/28 03:34:23;;;;;;;3.55;1.90;;;16.60;50.90;;;;;;5012984;28;20429;-77
2022/02/28 03:36:49;;;;;;;3.28;1.52;;;16.60;50.90;;;;;;5012680;28;20022;-77
2022/02/28 03:39:15;;;;;;;3.72;1.50;;;16.60;50.90;;;;;;5012837;28;20405;-76
2022/02/28 03:41:40;;;;;;;2.83;1.50;;;16.50;50.80;;;;;;5012461;28;20033;-77
2022/02/28 03:44:07;;;;;;;4.07;1.35;;;16.60;50.60;;;;;;5013034;28;20028;-79
2022/02/28 03:46:32;;;;;;;2.30;1.50;;;16.50;50.50;;;;;;5012784;28;20104;-77
2022/02/28 03:48:58;;;;;;;3.22;1.83;;;16.50;49.90;;;;;;5012349;28;20096;-76
2022/02/28 03:51:24;;;;;;;3.25;1.70;;;16.50;49.80;;;;;;4995197;28;20068;-76
2022/02/28 03:53:50;;;;;;;2.65;1.40;;;;;;;;;;5012402;28;20022;-77
2022/02/28 03:56:16;;;;;;;3.03;1.55;;;;;;;;;;5012147;28;20060;-77
2022/02/28 03:58:42;;;;;;;3.47;1.45;;;;;;;;;;5012312;28;20022;-76
2022/02/28 04:01:08;;;;;;;3.38;1.60;;;;;;;;;;5012780;28;20032;-76
2022/02/28 04:03:34;;;;;;;3.28;1.75;;;16.50;50.20;;;;;;5012577;28;20029;-76
2022/02/28 04:06:00;;;;;;;2.35;1.30;;;16.60;49.40;;;;;;5012218;28;20497;-78
2022/02/28 04:08:26;;;;;;;2.25;1.42;;;16.60;49.90;;;;;;5012313;28;20055;-75
2022/02/28 04:10:51;;;;;;;5.35;1.83;;;16.60;49.80;;;;;;5011755;28;20037;-76
2022/02/28 04:13:17;;;;;;;2.72;1.33;;;16.60;49.70;;;;;;5012373;28;20022;-76
2022/02/28 04:15:43;;;;;;;4.30;1.63;;;16.60;50.30;;;;;;4994568;28;20552;-78
2022/02/28 04:18:09;;;;;;;3.45;1.33;;;16.60;49.60;;;;;;5012518;28;20106;-78
2022/02/28 04:20:35;;;;;;;4.53;1.80;;;16.60;49.60;;;;;;5012465;28;20049;-75
2022/02/28 04:23:00;;;;;;;2.67;1.60;;;16.60;49.50;;;;;;4994327;28;20037;-75
2022/02/28 04:25:26;;;;;;;2.72;1.40;;;16.60;49.50;;;;;;4994605;28;20029;-76
2022/02/28 04:27:52;;;;;;;2.63;1.50;;;16.60;49.50;;;;;;4992295;28;20520;-76
2022/02/28 04:30:19;;;;;;;3.22;1.75;;;16.60;49.40;;;;;;4992439;28;20116;-82
2022/02/28 04:32:44;;;;;;;3.58;1.42;;;16.70;49.50;;;;;;4992351;28;20547;-85
2022/02/28 04:35:10;;;;;;;2.53;1.48;;;16.70;49.40;;;;;;4992361;28;20106;-82
2022/02/28 04:37:36;;;;;;;2.50;1.50;;;16.60;49.90;;;;;;4992664;28;20495;-79
2022/02/28 04:40:03;;;;;;;4.53;2.15;;;16.70;49.30;;;;;;4997412;28;20068;-82
2022/02/28 04:42:29;;;;;;;4.85;1.80;;;16.70;49.30;;;;;;5011970;28;20161;-78
2022/02/28 04:44:54;;;;;;;5.97;1.60;;;16.70;49.20;;;;;;5011642;28;20109;-77
2022/02/28 04:47:20;;;;;;;4.72;1.70;;;16.70;49.20;;;;;;4994884;28;20057;-77
2022/02/28 04:49:46;;;;;;;3.20;1.50;;;16.70;49.10;;;;;;4991906;28;20078;-76
2022/02/28 04:52:12;;;;;;;2.92;1.35;;;16.70;49.00;;;;;;4992229;28;20105;-77
2022/02/28 04:54:37;;;;;;;3.67;1.58;;;16.70;49.00;;;;;;4992442;28;20482;-77
2022/02/28 04:57:03;;;;;;;2.15;1.48;;;16.70;48.90;;;;;;5006921;28;20026;-79
2022/02/28 04:59:29;;;;;;;2.83;1.75;;;16.70;48.80;;;;;;5007060;28;20507;-76
2022/02/28 05:01:54;;;;;;;3.63;1.60;;;16.70;48.80;;;;;;5009936;28;20081;-79
2022/02/28 05:04:20;;;;;;;3.85;1.83;;;16.70;48.80;;;;;;5011543;28;20477;-76
2022/02/28 05:06:46;;;;;;;3.10;1.50;;;16.70;48.80;;;;;;5011284;28;20033;-77
2022/02/28 05:09:11;;;;;;;3.15;1.42;;;16.70;48.70;;;;;;5011419;28;20018;-78
2022/02/28 05:11:37;;;;;;;3.08;1.70;;;16.70;48.60;;;;;;5011413;28;20045;-77
2022/02/28 05:14:03;;;;;;;2.95;1.55;;;16.70;48.60;;;;;;4993706;28;20114;-77
2022/02/28 05:16:28;;;;;;;3.10;1.48;;;16.70;48.60;;;;;;5011450;28;20836;-76
2022/02/28 05:18:54;;;;;;;3.42;1.52;;;16.70;48.50;;;;;;4993461;28;20033;-78
2022/02/28 05:21:20;;;;;;;4.22;1.90;;;16.70;48.50;;;;;;5011388;28;20109;-78
2022/02/28 05:23:45;;;;;;;3.72;1.65;;;16.70;48.50;;;;;;5011096;28;20025;-79
2022/02/28 05:26:11;;;;;;;3.38;1.95;;;16.70;48.40;;;;;;5011059;28;20034;-77
2022/02/28 05:28:37;;;;;;;3.67;1.98;;;16.70;48.90;;;;;;5011620;28;20109;-77
2022/02/28 05:31:03;;;;;;;3.17;1.60;;;16.80;48.40;;;;;;5010814;28;20112;-79
2022/02/28 05:33:29;;;;;;;4.05;2.08;;;16.80;48.30;;;;;;5010678;28;20042;-79
2022/02/28 05:35:54;;;;;;;3.03;1.50;;;16.80;48.40;;;;;;5011039;28;20434;-77
2022/02/28 05:38:20;;;;;;;3.78;1.65;;;16.80;48.30;;;;;;5011018;28;20033;-79
2022/02/28 05:40:46;;;;;;;3.15;1.40;;;16.80;48.30;;;;;;5011011;28;20060;-79
2022/02/28 05:43:12;;;;;;;3.55;1.83;;;16.80;48.30;;;;;;5011188;28;20073;-80
2022/02/28 05:45:38;;;;;;;3.90;1.70;;;16.80;48.30;;;;;;5011406;28;20105;-79
2022/02/28 05:48:05;;;;;;;2.90;1.45;;;16.80;48.30;;;;;;5011310;28;20110;-79
2022/02/28 05:50:31;;;;;;;3.97;2.00;;;16.80;48.30;;;;;;5014953;28;20041;-80
2022/02/28 05:52:57;;;;;;;4.35;1.80;;;16.80;48.30;;;;;;5013724;28;20037;-80
2022/02/28 05:55:23;;;;;;;3.03;1.40;;;16.80;48.30;;;;;;5015007;28;20025;-77
2022/02/28 05:57:49;;;;;;;2.97;1.77;;;16.80;48.30;;;;;;4996629;28;20030;-80
2022/02/28 06:00:15;;;;;;;3.55;2.35;;;16.80;48.20;;;;;;5014435;28;20072;-76
2022/02/28 06:02:41;;;;;;;2.63;1.55;;;16.80;48.20;;;;;;5014625;28;20022;-80
2022/02/28 06:05:07;;;;;;;3.72;1.67;;;16.80;48.30;;;;;;5015007;28;20058;-82
2022/02/28 06:07:33;;;;;;;3.70;1.90;;;16.90;48.30;;;;;;5014759;28;20076;-78
2022/02/28 06:09:59;;;;;;;5.00;1.70;;;16.90;48.30;;;;;;5013283;28;20650;-78
2022/02/28 06:12:24;;;;;;;3.00;1.60;;;16.90;48.30;;;;;;5014540;28;20036;-78
2022/02/28 06:14:50;;;;;;;2.53;1.60;;;16.90;48.20;;;;;;5014292;28;20060;-79
2022/02/28 06:17:15;;;;;;;3.03;1.52;;;16.90;48.20;;;;;;5014534;28;20056;-80
2022/02/28 06:19:41;;;;;;;2.60;1.60;;;17.00;48.20;;;;;;5013779;28;20562;-81
2022/02/28 06:22:07;;;;;;;4.03;2.00;;;17.00;48.20;;;;;;5014828;28;20034;-83
2022/02/28 06:24:33;;;;;;;4.57;1.98;;;17.00;48.10;;;;;;5014401;28;20022;-77
2022/02/28 06:26:58;;;;;;;5.53;2.17;;;17.00;48.00;;;;;;5013834;28;20255;-77
2022/02/28 06:29:24;;;;;;;4.32;1.90;;;17.00;48.00;;;;;;5013395;28;20117;-78
2022/02/28 06:31:50;;;;;;;3.35;2.05;;;17.10;48.00;;;;;;5014061;28;20050;-79
2022/02/28 06:34:16;;;;;;;3.60;1.40;;;17.10;48.00;;;;;;5013850;28;20386;-76
2022/02/28 06:36:42;;;;;;;3.88;1.58;;;17.10;47.90;;;;;;5013857;28;20022;-77
2022/02/28 06:39:09;;;;;;;3.20;1.70;;;17.10;47.90;;;;;;5014206;28;20468;-76
2022/02/28 06:41:35;;;;;;;3.28;1.60;;;17.10;47.80;;;;;;4996755;28;20112;-76
2022/02/28 06:44:00;;;;;;;3.35;1.60;;;17.20;47.90;;;;;;5013583;28;20125;-77
2022/02/28 06:46:29;;;;;;;3.15;1.60;;;17.10;47.90;;;;;;5014049;28;20030;-77
2022/02/28 06:48:54;;;;;;;3.65;1.67;;;17.20;47.90;;;;;;5012430;28;20096;-77
2022/02/28 06:51:20;;;;;;;3.85;1.70;;;17.20;47.80;;;;;;5013747;28;20175;-77
2022/02/28 06:53:46;;;;;;;2.70;1.58;;;17.20;47.70;;;;;;5013695;28;20022;-80
2022/02/28 06:56:11;;;;;;;2.85;1.50;;;17.20;48.00;;;;;;5013382;28;20030;-76
2022/02/28 06:58:38;;;;;;;2.65;1.58;;;17.30;48.20;;;;;;5013651;28;20026;-79
2022/02/28 07:01:06;;;;;;;4.22;1.90;;;17.30;48.30;;;;;;5013340;28;20060;-80
2022/02/28 07:03:31;;;;;;;2.53;1.55;;;17.30;48.50;;;;;;5013617;28;20042;-80
2022/02/28 07:05:58;;;;;;;3.80;1.95;;;17.30;48.60;;;;;;5013281;28;20397;-76
2022/02/28 07:08:24;;;;;;;2.63;1.65;;;17.40;48.90;;;;;;5013447;28;20014;-79
2022/02/28 07:10:51;;;;;;;4.90;1.65;;;17.40;49.30;;;;;;5012315;28;20557;-77
2022/02/28 07:13:17;;;;;;;3.85;1.70;;;17.40;49.20;;;;;;5013176;28;20096;-77
2022/02/28 07:15:44;;;;;;;2.90;1.48;;;17.40;49.30;;;;;;5012270;28;20474;-78
2022/02/28 07:18:10;;;;;;;3.85;1.90;;;17.40;49.50;;;;;;5012535;28;20072;-80
2022/02/28 07:20:35;;;;;;;3.97;1.77;;;17.50;49.60;;;;;;5012946;28;20076;-78
2022/02/28 07:23:02;;;;;;;2.65;1.50;;;17.50;49.60;;;;;;5013014;28;20425;-77
2022/02/28 07:25:28;;;;;;;2.22;1.52;;;17.50;49.50;;;;;;5013171;28;20033;-76
2022/02/28 07:27:54;;;;;;;4.13;1.98;;;17.50;49.40;;;;;;5012900;28;20041;-76
2022/02/28 07:30:20;;;;;;;6.18;2.10;;;17.50;49.20;;;;;;5012851;28;20053;-76
2022/02/28 07:32:45;;;;;;;4.20;1.98;;;17.50;49.30;;;;;;5012900;28;20026;-76
2022/02/28 07:35:11;;;;;;;4.28;1.77;;;17.50;49.20;;;;;;5013061;28;20034;-75
2022/02/28 07:37:37;;;;;;;4.20;2.13;;;17.50;49.20;;;;;;5013295;28;20057;-77
2022/02/28 07:40:04;;;;;;;2.95;1.73;;;17.50;49.20;;;;;;5012497;28;20153;-76
2022/02/28 07:42:30;;;;;;;3.22;1.77;;;17.50;49.00;;;;;;5012753;28;20033;-77
2022/02/28 07:44:56;;;;;;;3.95;2.15;;;17.50;48.90;;;;;;4993448;28;20045;-76
2022/02/28 07:47:22;;;;;;;2.83;1.77;;;17.50;49.00;;;;;;5012816;28;20018;-78
2022/02/28 07:49:48;;;;;;;3.33;1.70;;;17.50;49.20;;;;;;5012595;28;20037;-77
2022/02/28 07:52:13;;;;;;;3.90;1.67;;;17.50;49.20;;;;;;5012319;28;20030;-77
2022/02/28 07:54:39;;;;;;;4.22;2.15;;;17.50;49.40;;;;;;5011830;28;20057;-78
2022/02/28 07:57:05;;;;;;;3.17;1.95;;;17.50;49.20;;;;;;5012018;28;20064;-76
2022/02/28 07:59:31;;;;;;;4.93;1.80;;;17.50;48.90;;;;;;5011732;28;20061;-78
2022/02/28 08:01:56;;;;;;;5.25;3.22;;;17.50;49.00;;;;;;5011658;28;20054;-81
2022/02/28 08:04:22;;;;;;;5.32;3.42;;;17.50;48.80;;;;;;5011619;28;20458;-76
2022/02/28 08:06:48;;;;;;;5.28;3.17;;;17.50;49.20;;;;;;5011883;28;20030;-76
2022/02/28 08:09:13;;;;;;;7.15;4.15;;;17.50;49.00;;;;;;5012516;28;20022;-80
2022/02/28 08:11:39;;;;;;;5.32;3.67;;;17.50;49.20;;;;;;5010951;28;20112;-79
2022/02/28 08:14:05;;;;;;;6.95;3.55;;;17.50;49.20;;;;;;5011076;28;20070;-78
2022/02/28 08:16:31;;;;;;;8.45;3.78;;;17.50;49.50;;;;;;5011285;28;20036;-77
2022/02/28 08:18:56;;;;;;;6.15;3.60;;;17.50;49.20;;;;;;5004303;28;20474;-76
2022/02/28 08:21:22;;;;;;;7.07;3.63;;;17.50;49.30;;;;;;5016333;28;20486;-78
2022/02/28 08:23:47;;;;;;;7.03;3.20;;;17.60;49.40;;;;;;5005205;28;20061;-80
2022/02/28 08:26:13;;;;;;;6.13;3.25;;;17.60;49.40;;;;;;5005254;28;20114;-75
2022/02/28 08:28:39;;;;;;;6.47;3.05;;;17.50;49.70;;;;;;5003711;28;20042;-76
2022/02/28 08:31:05;;;;;;;6.95;3.40;;;17.50;49.40;;;;;;5008059;28;20029;-74
2022/02/28 08:33:30;;;;;;;7.88;3.00;;;17.50;49.40;;;;;;5007596;28;20067;-76
2022/02/28 08:35:57;;;;;;;6.40;3.20;;;17.50;49.20;;;;;;5005826;28;20075;-83
2022/02/28 08:38:23;;;;;;;5.32;2.90;;;17.50;49.20;;;;;;5003546;28;20059;-75
2022/02/28 08:40:48;;;;;;;5.45;2.90;;;17.50;49.30;;;;;;4994834;28;20026;-75
2022/02/28 08:43:14;;;;;;;7.60;3.42;;;17.50;49.50;;;;;;4992227;28;20109;-75
2022/02/28 08:45:40;;;;;;;5.70;3.00;;;17.40;49.30;;;;;;4992008;28;20049;-76
2022/02/28 08:48:06;;;;;;;5.80;3.25;;;17.40;49.40;;;;;;4992444;28;20494;-75
2022/02/28 08:50:32;;;;;;;4.88;2.60;;;17.40;49.30;;;;;;4992131;28;20030;-74
2022/02/28 08:52:58;;;;;;;6.35;2.67;;;17.40;49.20;;;;;;4991812;28;20101;-75
2022/02/28 08:55:25;;;;;;;5.13;2.83;;;17.40;49.20;;;;;;5006054;28;20022;-75
2022/02/28 08:57:50;;;;;;;3.83;2.85;;;17.40;49.20;;;;;;4993904;28;20033;-74
2022/02/28 09:00:16;;;;;;;4.55;2.65;;;17.40;49.10;;;;;;5011653;28;20021;-74
2022/02/28 09:02:42;;;;;;;10.82;2.97;;;17.40;49.00;;;;;;5011381;28;20018;-75
2022/02/28 09:05:08;;;;;;;4.00;2.60;;;17.40;48.90;;;;;;5012035;28;20025;-75
2022/02/28 09:07:34;;;;;;;4.32;2.60;;;17.40;48.80;;;;;;5011810;28;20026;-75
2022/02/28 09:10:00;;;;;;;5.95;2.80;;;17.40;48.60;;;;;;4999857;28;20069;-75
2022/02/28 09:12:27;;;;;;;3.97;2.60;;;17.40;48.70;;;;;;4991908;28;20018;-74
2022/02/28 09:14:52;;;;;;;4.50;2.30;;;17.40;48.70;;;;;;4991632;28;20022;-74
2022/02/28 09:17:18;;;;;;;6.75;2.67;;;17.40;48.50;;;;;;5010374;28;20041;-74
2022/02/28 09:19:44;;;;;;;6.80;2.92;;;17.40;48.50;;;;;;5011257;28;20080;-74
2022/02/28 09:22:10;;;;;;;4.05;2.30;;;17.40;48.50;;;;;;5011275;28;20398;-77
2022/02/28 09:24:35;;;;;;;6.32;2.85;;;17.40;48.30;;;;;;5013431;28;20080;-76
2022/02/28 09:27:02;;;;;;;6.28;2.40;;;17.40;48.20;;;;;;5015198;28;20517;-74
2022/02/28 09:29:31;;;;;;;6.47;2.70;;;17.40;48.10;;;;;;5015316;28;20017;-75
2022/02/28 09:31:58;;;;;;;4.72;2.60;;;17.40;48.00;;;;;;5014542;28;20042;-74
2022/02/28 09:34:25;;;;;;;6.03;2.70;;;17.40;47.90;;;;;;5013982;28;20022;-74
2022/02/28 09:36:51;;;;;;;4.57;2.72;;;17.40;47.90;;;;;;5015060;28;20030;-74
2022/02/28 09:39:20;;;;;;;6.63;2.70;;;17.40;47.90;;;;;;5014990;28;20030;-75
2022/02/28 09:41:46;;;;;;;4.55;2.83;;;17.40;47.80;;;;;;5015028;28;20032;-74
2022/02/28 09:44:16;;;;;;;4.65;2.55;;;17.40;47.90;;;;;;5015070;28;20097;-74
2022/02/28 09:46:43;;;;;;;4.85;2.53;;;17.40;47.70;;;;;;5014377;28;20022;-79
2022/02/28 09:49:10;;;;;;;4.78;2.58;;;17.40;47.80;;;;;;5014544;28;20429;-75
2022/02/28 09:51:36;;;;;;;4.32;2.80;;;17.40;47.80;;;;;;5015152;28;20030;-75
2022/02/28 09:54:02;;;;;;;5.22;2.47;;;17.40;47.80;;;;;;5014014;28;20072;-75
2022/02/28 09:56:27;;;;;;;5.25;2.75;;;17.40;47.60;;;;;;5013573;28;20022;-74
2022/02/28 09:58:53;;;;;;;5.15;2.50;;;17.40;47.60;;;;;;5013278;28;20436;-74
2022/02/28 10:01:19;;;;;;;4.60;2.40;;;17.40;47.50;;;;;;5010896;28;20498;-74
2022/02/28 10:03:45;;;;;;;4.82;2.75;;;17.40;47.40;;;;;;5014504;28;20068;-76
2022/02/28 10:06:11;;;;;;;5.40;2.70;;;17.40;47.40;;;;;;5013539;28;20071;-75
2022/02/28 10:08:48;;;;;;;5.22;2.92;;;17.50;47.30;;;;;;5014529;28;20103;-77
2022/02/28 10:11:34;;;;;;;5.25;2.30;;;17.50;47.30;;;;;;5014782;28;20041;-74
2022/02/28 10:14:05;;;;;;;4.90;2.53;;;17.50;47.10;;;;;;5014365;28;20122;-76
2022/02/28 10:16:38;;;;;;;4.43;2.30;;;17.50;47.00;;;;;;5014493;28;20018;-75
2022/02/28 10:19:06;;;;;;;3.78;2.42;;;17.50;46.90;;;;;;5013613;28;20026;-75
2022/02/28 10:21:38;;;;;;;4.70;2.78;;;17.50;46.90;;;;;;5013162;28;20022;-74
2022/02/28 10:24:04;;;;;;;4.07;2.30;;;17.50;46.90;;;;;;5013064;28;20030;-78
2022/02/28 10:26:45;;;;;;;3.63;2.40;;;17.60;46.90;;;;;;5014298;28;20468;-75
2022/02/28 10:29:13;;;;;;;4.07;2.42;;;17.50;47.00;;;;;;5009660;28;20037;-76
2022/02/28 10:31:42;;;;;;;3.20;2.28;;;17.60;47.20;;;;;;5012213;28;20034;-74
2022/02/28 10:34:17;;;;;;;7.32;2.35;;;17.60;47.40;;;;;;5014032;28;20022;-77
2022/02/28 10:37:03;;;;;;;4.60;1.85;;;17.70;47.50;;;;;;5013916;28;20501;-78
2022/02/28 10:39:38;;;;;;;6.18;2.25;;;17.70;47.50;;;;;;5013526;28;20171;-77
2022/02/28 10:42:14;;;;;;;4.38;2.20;;;17.70;47.50;;;;;;4994864;28;20026;-80
2022/02/28 10:44:40;;;;;;;6.50;2.35;;;17.80;47.40;;;;;;5007469;28;20026;-78
2022/02/28 10:47:09;;;;;;;4.32;3.03;;;17.80;47.40;;;;;;5013864;28;20018;-77
2022/02/28 10:49:36;;;;;;;4.75;2.60;;;17.80;47.30;;;;;;5012126;28;20018;-77
2022/02/28 10:52:08;;;;;;;5.13;2.78;;;17.90;47.30;;;;;;5013031;28;20049;-79
2022/02/28 10:54:41;;;;;;;3.10;2.28;;;18.00;49.60;;;;;;5013800;28;20029;-81
2022/02/28 10:57:18;;;;;;;4.13;2.30;;;17.90;47.50;;;;;;5013214;28;20048;-77
2022/02/28 10:59:49;;;;;;;6.57;2.90;;;18.00;47.60;;;;;;5012855;28;20038;-76
2022/02/28 11:02:33;;;;;;;5.28;2.72;;;18.10;47.40;;;;;;5013179;28;20105;-76
2022/02/28 11:05:16;;;;;;;4.22;2.35;;;18.10;47.40;;;;;;5013336;28;20034;-78
2022/02/28 11:07:43;;;;;;;7.05;2.17;;;18.20;47.40;;;;;;5013388;28;20076;-77
2022/02/28 11:10:10;;;;;;;5.35;2.53;;;18.30;46.80;;;;;;5012362;28;20029;-78
2022/02/28 11:12:36;;;;;;;4.55;1.98;;;18.30;47.20;;;;;;5013697;28;20049;-77
2022/02/28 11:15:07;;;;;;;2.67;1.83;;;18.50;47.70;;;;;;5012859;28;20054;-80
2022/02/28 11:17:35;;;;;;;4.57;1.92;;;18.60;47.60;;;;;;5018462;28;20057;-77
2022/02/28 11:20:08;;;;;;;4.50;2.30;;;18.80;47.00;;;;;;5015199;28;20061;-77
2022/02/28 11:22:34;;;;;;;4.43;2.33;;;18.90;47.10;;;;;;5012078;28;20026;-76
2022/02/28 11:25:01;;;;;;;7.07;2.40;;;19.10;47.00;;;;;;5012380;28;20026;-76
2022/02/28 11:27:29;;;;;;;6.05;2.13;;;19.40;46.20;;;;;;5012412;28;20052;-77
2022/02/28 11:29:58;;;;;;;5.32;2.05;;;19.40;46.70;;;;;;5012234;28;20045;-77
2022/02/28 11:32:26;;;;;;;4.38;2.22;;;19.60;46.30;;;;;;5012888;28;20110;-78
2022/02/28 11:34:54;;;;;;;4.15;2.40;;;20.00;46.60;;;;;;5012144;28;20010;-77
2022/02/28 11:37:25;;;;;;;3.88;2.55;;;20.60;45.30;;;;;;5011912;28;20034;-77
2022/02/28 11:40:00;;;;;;;4.97;2.60;;;22.10;43.50;;;;;;5012100;28;20036;-76
2022/02/28 11:42:44;;;;;;;;;;;24.10;40.50;;;;;;5013213;28;20113;-75
2022/02/28 11:45:11;;;;;;;4.25;2.13;;;;;;;;;;5012258;28;19917;-77
2022/02/28 11:47:37;;;;;;;4.95;2.20;;;;;;;;;;5010993;28;20041;-76
2022/02/28 11:50:17;;;;;;;3.60;2.25;;;26.00;37.40;;;;;;5012308;28;20409;-76
2022/02/28 11:52:43;;;;;;;5.55;2.38;;;29.60;32.50;;;;;;5010238;28;20502;-75
2022/02/28 11:55:11;;;;;;;8.80;2.58;;;30.20;31.40;;;;;;5012793;28;20037;-79
2022/02/28 11:57:54;;;;;;;4.80;2.40;;;30.70;30.80;;;;;;5011722;28;20022;-78
2022/02/28 12:00:36;;;;;;;9.55;2.45;;;31.30;30.00;;;;;;5011756;28;20095;-76
2022/02/28 12:03:02;;;;;;;3.30;1.92;;;;;;;;;;5012249;28;20041;-77
2022/02/28 12:05:40;;;;;;;3.00;1.77;;;32.20;29.40;;;;;;5012353;28;20026;-77
2022/02/28 12:08:08;;;;;;;5.00;1.90;;;32.90;28.70;;;;;;5009975;28;20018;-79
2022/02/28 12:10:37;;;;;;;4.65;2.28;;;33.10;28.00;;;;;;5012365;28;20062;-78
2022/02/28 12:13:03;;;;;;;4.63;1.88;;;33.20;28.00;;;;;;5010421;28;20402;-76
2022/02/28 12:15:29;;;;;;;3.05;1.80;;;33.20;28.10;;;;;;5011973;28;20041;-79
2022/02/28 12:17:57;;;;;;;2.80;1.83;;;33.30;28.00;;;;;;5012026;28;20026;-79
2022/02/28 12:20:27;;;;;;;4.63;1.70;;;33.50;27.70;;;;;;5012201;28;20033;-77
2022/02/28 12:22:53;;;;;;;2.88;1.58;;;33.00;28.00;;;;;;5010747;28;20055;-76
2022/02/28 12:25:38;;;;;;;4.85;1.90;;;32.60;28.40;;;;;;5012068;28;20033;-77
2022/02/28 12:28:21;;;;;;;3.50;1.70;;;31.80;29.00;;;;;;5011419;28;20111;-77
2022/02/28 12:31:02;;;;;;;3.70;1.70;;;31.10;29.40;;;;;;5010364;28;20034;-77
2022/02/28 12:33:33;;;;;;;2.30;1.58;;;30.70;30.00;;;;;;5011124;28;20071;-76
2022/02/28 12:36:17;;;;;;;3.72;1.67;;;31.00;29.80;;;;;;5011686;28;20059;-77
2022/02/28 12:38:48;;;;;;;3.70;1.80;;;30.60;30.00;;;;;;5011527;28;20056;-75
2022/02/28 12:41:24;;;;;;;2.45;1.73;;;30.50;30.20;;;;;;5011916;28;20045;-76
2022/02/28 12:43:51;;;;;;;4.28;1.92;;;30.70;30.00;;;;;;5009405;28;20535;-77
2022/02/28 12:46:27;;;;;;;3.97;1.80;;;30.60;30.00;;;;;;5011882;28;20046;-76
2022/02/28 12:48:53;;;;;;;3.03;1.58;;;31.20;29.70;;;;;;5011588;28;20026;-77
2022/02/28 12:51:21;;;;;;;2.50;1.60;;;31.40;29.30;;;;;;5011245;28;20042;-77